Time;durP1;ratioP1;P1;durP2;ratioP2;P2;SDS_P1;SDS_P2;PMS_P1;PMS_P2;Temp;Humidity;BMP_temperature;BMP_pressure;BME280_temperature;BME280_humidity;BME280_pressure;Samples;Min_cycle;Max_cycle;Signal;HPM_P1;HPM_P2
2021/11/26 00:02:18;;;;;;;21.83;6.18;;;;;;;6.57;82.17;100635.44;5065954;28;20056;-61
2021/11/26 00:04:48;;;;;;;22.70;6.32;;;;;;;6.23;82.91;100640.13;5065204;28;20061;-60
2021/11/26 00:07:18;;;;;;;20.67;6.13;;;;;;;6.25;83.09;100633.28;5059828;28;20075;-63
2021/11/26 00:09:47;;;;;;;22.67;4.90;;;;;;;6.42;82.17;100627.34;5055142;28;20094;-64
2021/11/26 00:12:14;;;;;;;16.80;5.20;;;;;;;6.31;83.66;100634.03;5070419;28;20520;-60
2021/11/26 00:14:47;;;;;;;21.42;5.25;;;;;;;6.46;82.91;100621.03;5062957;28;20056;-65
2021/11/26 00:17:18;;;;;;;28.52;5.15;;;;;;;6.48;82.00;100612.53;5062351;28;20049;-64
2021/11/26 00:19:47;;;;;;;21.60;4.97;;;;;;;6.33;82.82;100607.22;5062676;28;20044;-61
2021/11/26 00:22:15;;;;;;;16.23;5.10;;;;;;;6.24;82.21;100625.34;5042971;28;20495;-62
2021/11/26 00:24:43;;;;;;;16.05;4.53;;;;;;;5.93;83.17;100619.31;5065184;28;20072;-60
2021/11/26 00:27:10;;;;;;;17.38;4.65;;;;;;;5.98;83.79;100618.47;5063257;28;20060;-60
2021/11/26 00:29:38;;;;;;;18.02;4.95;;;;;;;6.02;83.55;100628.53;5070757;28;20045;-61
2021/11/26 00:32:06;;;;;;;16.58;4.35;;;;;;;5.83;83.37;100619.38;5069337;28;20044;-60
2021/11/26 00:34:33;;;;;;;18.23;5.03;;;;;;;5.99;83.20;100617.34;5067615;28;20049;-63
2021/11/26 00:37:00;;;;;;;16.90;4.47;;;;;;;5.79;84.19;100618.28;5073190;28;20033;-64
2021/11/26 00:39:28;;;;;;;16.42;4.55;;;;;;;5.93;83.03;100613.84;5081234;28;20581;-61
2021/11/26 00:41:55;;;;;;;16.02;4.43;;;;;;;6.07;81.66;100614.81;5046649;28;20056;-61
2021/11/26 00:44:22;;;;;;;23.88;4.78;;;;;;;5.97;82.02;100603.16;5059282;28;20045;-61
2021/11/26 00:46:50;;;;;;;24.92;4.78;;;;;;;6.03;82.16;100602.84;5066250;28;20083;-65
2021/11/26 00:49:17;;;;;;;15.15;4.65;;;;;;;5.94;82.06;100599.09;5074330;28;20060;-66
2021/11/26 00:51:44;;;;;;;22.90;4.57;;;;;;;5.98;82.81;100604.78;5068122;28;20415;-60
2021/11/26 00:54:12;;;;;;;23.02;5.20;;;;;;;6.17;82.38;100597.53;5069993;28;20045;-61
2021/11/26 00:56:39;;;;;;;24.92;5.32;;;;;;;5.92;83.19;100608.66;5061693;28;20060;-64
2021/11/26 00:59:06;;;;;;;15.05;5.20;;;;;;;5.76;83.77;100605.19;5070798;28;20044;-60
2021/11/26 01:01:33;;;;;;;14.02;5.13;;;;;;;5.82;83.99;100601.34;5058880;28;20075;-64
2021/11/26 01:04:01;;;;;;;23.33;5.57;;;;;;;5.73;84.02;100597.56;5069700;28;20056;-61
2021/11/26 01:06:29;;;;;;;16.92;4.90;;;;;;;5.67;84.93;100595.97;5061953;28;20531;-61
2021/11/26 01:08:56;;;;;;;18.63;5.15;;;;;;;5.77;84.34;100587.69;5059214;28;20421;-61
2021/11/26 01:11:24;;;;;;;19.10;5.63;;;;;;;6.03;83.68;100589.16;5067971;28;20053;-61
2021/11/26 01:13:51;;;;;;;21.73;5.32;;;;;;;5.65;83.82;100588.06;5065987;28;20489;-65
2021/11/26 01:16:19;;;;;;;20.15;4.57;;;;;;;5.81;83.65;100593.41;5063304;28;20055;-66
2021/11/26 01:18:46;;;;;;;21.73;5.22;;;;;;;5.68;83.81;100592.16;5073422;28;20055;-66
2021/11/26 01:21:13;;;;;;;20.30;5.20;;;;;;;5.81;83.50;100590.66;5064075;28;20413;-65
2021/11/26 01:23:41;;;;;;;23.40;5.18;;;;;;;5.92;83.54;100584.06;5061864;28;20045;-65
2021/11/26 01:26:08;;;;;;;20.88;5.18;;;;;;;5.96;82.72;100575.03;5072943;28;20044;-60
2021/11/26 01:28:36;;;;;;;21.13;4.60;;;;;;;5.71;83.26;100572.44;5064119;28;20049;-61
2021/11/26 01:31:03;;;;;;;17.30;4.78;;;;;;;5.83;83.13;100574.84;5061820;28;20045;-63
2021/11/26 01:33:31;;;;;;;22.73;5.82;;;;;;;5.69;83.37;100578.19;5070335;28;20059;-65
2021/11/26 01:35:59;;;;;;;13.82;4.10;;;;;;;5.59;82.89;100569.25;5067111;28;20053;-60
2021/11/26 01:38:26;;;;;;;18.90;5.25;;;;;;;5.87;82.29;100575.91;5068186;28;20412;-64
2021/11/26 01:40:53;;;;;;;26.65;4.90;;;;;;;5.74;82.75;100566.41;5070684;28;20044;-62
2021/11/26 01:43:21;;;;;;;14.88;5.10;;;;;;;5.33;84.36;100559.59;5060488;28;20389;-64
2021/11/26 01:45:54;;;;;;;17.67;4.32;;;;;;;5.22;84.77;100561.56;5071270;28;20065;-65
2021/11/26 01:48:23;;;;;;;22.60;4.45;;;;;;;5.23;84.92;100557.72;5058983;28;20433;-62
2021/11/26 01:50:52;;;;;;;20.17;5.28;;;;;;;5.30;84.99;100554.72;5063844;28;20059;-65
2021/11/26 01:53:19;;;;;;;16.75;5.03;;;;;;;5.69;84.20;100544.59;5065065;28;20052;-62
2021/11/26 01:55:47;;;;;;;16.98;4.63;;;;;;;5.92;82.76;100551.25;5066142;28;20522;-61
2021/11/26 01:58:14;;;;;;;17.80;4.75;;;;;;;5.74;82.61;100545.38;5051243;28;20040;-65
2021/11/26 02:00:44;;;;;;;21.67;4.43;;;;;;;5.66;82.69;100537.78;5065196;28;20048;-65
2021/11/26 02:03:12;;;;;;;;;;;;;;;5.39;83.03;100539.34;5065680;28;20100;-62
2021/11/26 02:05:39;;;;;;;23.70;5.47;;;;;;;5.39;84.59;100536.59;5056357;28;20335;-61
2021/11/26 02:08:10;;;;;;;19.60;5.18;;;;;;;5.38;84.45;100524.88;5056316;28;20457;-61
2021/11/26 02:10:38;;;;;;;17.48;4.82;;;;;;;5.64;84.25;100520.03;5056065;28;20053;-66
2021/11/26 02:13:06;;;;;;;25.38;5.88;;;;;;;6.07;83.17;100508.19;5055677;28;20067;-61
2021/11/26 02:15:40;;;;;;;21.73;4.97;;;;;;;5.95;82.28;100506.94;5052592;28;20056;-61
2021/11/26 02:18:08;;;;;;;19.83;4.82;;;;;;;6.08;81.81;100507.09;5055185;28;20045;-61
2021/11/26 02:20:36;;;;;;;24.80;4.57;;;;;;;6.10;81.51;100493.94;5055023;28;20052;-61
2021/11/26 02:23:04;;;;;;;18.00;5.57;;;;;;;6.25;81.06;100502.00;5063017;28;20044;-65
2021/11/26 02:25:31;;;;;;;24.00;6.07;;;;;;;6.19;81.17;100486.72;5068672;28;20468;-65
2021/11/26 02:28:01;;;;;;;21.20;5.05;;;;;;;6.23;80.92;100496.00;5061769;28;20045;-60
2021/11/26 02:30:29;;;;;;;31.02;5.72;;;;;;;6.42;80.12;100494.13;5060193;28;20053;-62
2021/11/26 02:33:02;;;;;;;18.58;4.85;;;;;;;6.19;80.03;100492.19;5058969;28;20045;-64
2021/11/26 02:35:30;;;;;;;16.92;5.00;;;;;;;6.10;81.10;100483.00;5065711;28;20052;-61
2021/11/26 02:37:58;;;;;;;18.85;4.82;;;;;;;6.18;80.62;100476.91;5068036;28;20059;-62
2021/11/26 02:40:27;;;;;;;21.50;6.05;;;;;;;6.11;80.82;100473.69;5078118;28;20048;-62
2021/11/26 02:42:55;;;;;;;23.90;5.37;;;;;;;5.85;81.93;100479.72;5060472;28;20400;-65
2021/11/26 02:45:24;;;;;;;17.52;4.60;;;;;;;6.02;81.34;100478.16;5061524;28;20055;-66
2021/11/26 02:47:53;;;;;;;14.38;4.78;;;;;;;5.99;81.28;100477.94;5056290;28;20049;-66
2021/11/26 02:50:23;;;;;;;22.40;5.47;;;;;;;5.96;81.18;100473.88;5069189;28;20056;-62
2021/11/26 02:52:50;;;;;;;22.45;4.72;;;;;;;5.87;81.45;100469.31;5061233;28;20060;-61
2021/11/26 02:55:20;;;;;;;19.40;5.68;;;;;;;5.65;82.81;100459.63;5056569;28;20051;-65
2021/11/26 02:57:47;;;;;;;21.77;4.55;;;;;;;5.77;82.71;100455.72;5083791;28;20049;-62
2021/11/26 03:00:19;;;;;;;19.15;5.38;;;;;;;6.06;82.17;100437.41;5063501;28;20052;-65
2021/11/26 03:02:46;;;;;;;16.42;4.88;;;;;;;5.59;82.49;100440.84;5061428;28;20061;-65
2021/11/26 03:05:14;;;;;;;19.40;4.47;;;;;;;5.42;83.68;100440.47;5064922;28;20052;-65
2021/11/26 03:07:41;;;;;;;19.20;5.45;;;;;;;5.42;84.32;100432.28;5070182;28;20059;-60
2021/11/26 03:10:13;;;;;;;23.75;4.75;;;;;;;5.52;84.13;100429.44;5064687;28;20048;-65
2021/11/26 03:12:40;;;;;;;17.02;4.85;;;;;;;5.72;84.02;100424.59;5064673;28;20067;-66
2021/11/26 03:15:08;;;;;;;21.05;4.78;;;;;;;5.89;82.95;100429.66;5047567;28;20040;-65
2021/11/26 03:17:35;;;;;;;19.65;5.20;;;;;;;6.09;81.93;100420.41;5069034;28;20048;-61
2021/11/26 03:20:03;;;;;;;18.75;4.65;;;;;;;6.10;81.97;100422.06;5046440;28;20504;-61
2021/11/26 03:22:30;;;;;;;19.75;4.93;;;;;;;5.89;82.67;100418.72;5066125;28;20048;-62
2021/11/26 03:24:57;;;;;;;18.13;4.55;;;;;;;5.99;81.51;100407.69;5064627;28;20049;-65
2021/11/26 03:27:25;;;;;;;19.15;4.68;;;;;;;6.05;81.49;100414.69;5058896;28;20051;-65
2021/11/26 03:29:52;;;;;;;15.23;4.07;;;;;;;6.17;80.55;100409.63;5063443;28;20053;-61
2021/11/26 03:32:19;;;;;;;23.58;5.00;;;;;;;6.04;80.63;100413.09;5063501;28;20052;-61
2021/11/26 03:34:47;;;;;;;17.17;4.50;;;;;;;5.89;82.24;100402.34;5074619;28;20543;-64
2021/11/26 03:37:14;;;;;;;20.35;5.05;;;;;;;6.13;81.22;100396.84;5059020;28;20045;-65
2021/11/26 03:39:42;;;;;;;23.45;5.88;;;;;;;6.15;80.64;100394.66;5079616;28;20048;-64
2021/11/26 03:42:09;;;;;;;17.67;5.15;;;;;;;6.08;80.63;100381.34;5078041;28;20495;-64
2021/11/26 03:44:37;;;;;;;18.42;4.75;;;;;;;6.18;80.62;100378.47;5067965;28;20041;-60
2021/11/26 03:47:04;;;;;;;21.77;5.60;;;;;;;6.25;80.38;100373.44;5068785;28;20052;-67
2021/11/26 03:49:32;;;;;;;19.90;5.30;;;;;;;5.91;80.99;100366.50;5036904;28;20052;-65
2021/11/26 03:51:59;;;;;;;17.33;5.45;;;;;;;6.04;81.16;100361.13;5057724;28;20049;-61
2021/11/26 03:54:26;;;;;;;13.68;5.32;;;;;;;6.03;80.69;100362.25;5061893;28;20052;-61
2021/11/26 03:56:54;;;;;;;19.08;4.85;;;;;;;6.11;80.23;100367.06;5048360;28;20056;-62
2021/11/26 03:59:21;;;;;;;23.50;5.30;;;;;;;5.78;81.49;100362.50;5065630;28;20063;-63
2021/11/26 04:01:48;;;;;;;22.92;5.57;;;;;;;6.02;81.56;100365.25;5063259;28;20044;-65
2021/11/26 04:04:16;;;;;;;21.98;6.13;;;;;;;5.94;80.93;100353.06;5066151;28;20055;-60
2021/11/26 04:06:43;;;;;;;21.02;5.55;;;;;;;6.04;81.26;100352.13;5068482;28;20048;-60
2021/11/26 04:09:10;;;;;;;25.63;6.45;;;;;;;6.05;80.90;100353.75;5067398;28;20053;-61
2021/11/26 04:11:37;;;;;;;22.02;6.60;;;;;;;6.10;80.53;100345.50;5068084;28;20056;-66
2021/11/26 04:14:05;;;;;;;21.52;6.97;;;;;;;6.06;80.40;100345.25;5065884;28;20041;-62
2021/11/26 04:16:34;;;;;;;19.75;6.45;;;;;;;6.06;81.00;100345.25;5069769;28;20044;-65
2021/11/26 04:19:05;;;;;;;26.27;6.78;;;;;;;5.95;81.08;100332.00;5081999;28;20044;-65
2021/11/26 04:21:33;;;;;;;32.95;7.53;;;;;;;5.92;80.46;100333.41;5070215;28;20049;-61
2021/11/26 04:24:02;;;;;;;20.17;6.72;;;;;;;5.91;80.71;100337.22;5069922;28;20044;-61
2021/11/26 04:26:29;;;;;;;18.52;6.55;;;;;;;5.81;80.80;100328.31;5070124;28;20055;-61
2021/11/26 04:28:59;;;;;;;23.38;6.68;;;;;;;5.73;80.86;100322.41;5068027;28;20044;-61
2021/11/26 04:31:27;;;;;;;20.90;7.75;;;;;;;5.75;81.35;100319.38;5063034;28;20060;-61
2021/11/26 04:33:54;;;;;;;21.77;7.68;;;;;;;5.72;82.06;100318.03;5065463;28;20481;-60
2021/11/26 04:36:23;;;;;;;17.45;8.02;;;;;;;5.81;81.44;100318.19;5075520;28;20393;-61
2021/11/26 04:38:50;;;;;;;20.60;7.80;;;;;;;5.94;80.73;100312.06;5070118;28;20060;-61
2021/11/26 04:41:18;;;;;;;26.25;8.45;;;;;;;5.68;80.95;100305.25;5048267;28;20055;-60
2021/11/26 04:43:45;;;;;;;26.25;8.55;;;;;;;5.60;82.05;100290.31;5065425;28;20044;-62
2021/11/26 04:46:12;;;;;;;20.30;8.88;;;;;;;5.62;82.02;100285.38;5068140;28;20415;-62
2021/11/26 04:48:39;;;;;;;20.38;8.05;;;;;;;5.76;81.66;100299.13;5063947;28;20427;-61
2021/11/26 04:51:07;;;;;;;21.20;8.25;;;;;;;5.81;81.49;100298.25;5058953;28;20059;-60
2021/11/26 04:53:34;;;;;;;25.33;9.07;;;;;;;5.71;81.80;100296.47;5065408;28;20032;-62
2021/11/26 04:56:01;;;;;;;27.65;8.70;;;;;;;5.73;81.70;100295.09;5059752;28;20053;-63
2021/11/26 04:58:34;;;;;;;22.95;8.00;;;;;;;5.88;80.94;100288.63;5072882;28;20041;-61
2021/11/26 05:01:05;;;;;;;20.60;8.63;;;;;;;5.99;80.52;100294.78;5066014;28;20047;-62
2021/11/26 05:03:32;;;;;;;22.15;8.60;;;;;;;6.08;79.67;100288.38;5057289;28;20052;-63
2021/11/26 05:06:00;;;;;;;20.67;8.90;;;;;;;5.84;80.06;100286.78;5040797;28;20083;-62
2021/11/26 05:08:27;;;;;;;29.25;9.45;;;;;;;6.06;80.17;100276.91;5069451;28;20423;-61
2021/11/26 05:10:55;;;;;;;23.95;8.98;;;;;;;5.72;80.47;100278.94;5070378;28;20063;-61
2021/11/26 05:13:26;;;;;;;21.00;10.30;;;;;;;5.74;80.72;100265.81;5065246;28;20045;-61
2021/11/26 05:15:54;;;;;;;18.83;9.38;;;;;;;5.79;81.22;100267.69;5068031;28;20051;-61
2021/11/26 05:18:26;;;;;;;20.95;10.25;;;;;;;6.08;80.21;100265.69;5074612;28;20052;-61
2021/11/26 05:20:54;;;;;;;28.52;10.10;;;;;;;5.87;79.98;100265.16;5067618;28;20052;-65
2021/11/26 05:23:23;;;;;;;23.25;10.05;;;;;;;5.74;80.47;100263.91;5064568;28;20052;-65
2021/11/26 05:25:51;;;;;;;21.35;9.88;;;;;;;5.49;81.53;100255.22;5062600;28;20049;-65
2021/11/26 05:28:18;;;;;;;25.80;10.65;;;;;;;5.53;81.62;100248.88;5072359;28;20051;-64
2021/11/26 05:30:45;;;;;;;23.55;9.57;;;;;;;5.83;80.80;100236.78;5066798;28;20056;-65
2021/11/26 05:33:13;;;;;;;20.10;8.85;;;;;;;5.65;81.12;100229.31;5057276;28;20067;-65
2021/11/26 05:35:40;;;;;;;26.15;9.38;;;;;;;6.00;80.32;100228.88;5069583;28;20045;-65
2021/11/26 05:38:08;;;;;;;24.85;8.80;;;;;;;6.26;79.39;100221.91;5067913;28;20048;-64
2021/11/26 05:40:35;;;;;;;23.73;8.55;;;;;;;5.91;79.63;100214.22;5071412;28;20049;-64
2021/11/26 05:43:03;;;;;;;30.23;9.18;;;;;;;5.78;80.69;100212.22;5068972;28;20396;-65
2021/11/26 05:45:31;;;;;;;24.95;8.18;;;;;;;5.96;80.16;100216.94;5067165;28;20044;-61
2021/11/26 05:47:58;;;;;;;23.25;7.75;;;;;;;5.88;79.77;100205.81;5066063;28;20516;-62
2021/11/26 05:50:27;;;;;;;28.02;8.30;;;;;;;6.24;79.28;100193.25;5072427;28;20045;-61
2021/11/26 05:52:54;;;;;;;22.67;7.68;;;;;;;6.14;79.03;100198.88;5065700;28;20045;-65
2021/11/26 05:55:26;;;;;;;17.33;7.20;;;;;;;5.98;78.83;100186.56;5064345;28;20084;-65
2021/11/26 05:57:54;;;;;;;26.67;7.95;;;;;;;5.78;79.54;100178.59;5064790;28;20060;-65
2021/11/26 06:00:24;;;;;;;19.08;7.30;;;;;;;5.82;80.19;100185.13;5064884;28;20064;-65
2021/11/26 06:02:52;;;;;;;22.15;7.18;;;;;;;5.84;79.58;100180.19;5067911;28;20115;-65
2021/11/26 06:05:20;;;;;;;20.30;7.38;;;;;;;5.73;80.36;100190.44;5046569;28;20053;-65
2021/11/26 06:07:47;;;;;;;20.95;7.15;;;;;;;5.83;80.15;100173.91;5068263;28;20044;-65
2021/11/26 06:10:15;;;;;;;21.70;7.55;;;;;;;5.81;79.78;100167.91;5065983;28;20049;-65
2021/11/26 06:12:44;;;;;;;20.00;7.40;;;;;;;5.81;80.27;100161.59;5073608;28;20044;-65
2021/11/26 06:15:13;;;;;;;20.48;7.38;;;;;;;6.02;79.41;100157.50;5060297;28;20161;-65
2021/11/26 06:17:41;;;;;;;22.08;6.57;;;;;;;6.15;78.46;100163.06;5064619;28;20075;-65
2021/11/26 06:20:10;;;;;;;19.00;7.40;;;;;;;5.99;79.21;100158.09;5067244;28;20060;-64
2021/11/26 06:22:39;;;;;;;21.33;7.03;;;;;;;5.84;79.03;100155.59;5067094;28;20049;-66
2021/11/26 06:25:08;;;;;;;22.67;6.38;;;;;;;5.90;78.49;100149.75;5074575;28;20318;-64
2021/11/26 06:27:35;;;;;;;26.77;6.60;;;;;;;5.84;79.52;100147.41;5068249;28;20500;-66
2021/11/26 06:30:04;;;;;;;27.38;6.90;;;;;;;5.72;79.75;100143.16;5067796;28;20423;-66
2021/11/26 06:32:32;;;;;;;22.98;6.55;;;;;;;5.70;79.52;100136.38;5065193;28;20044;-65
2021/11/26 06:34:59;;;;;;;16.67;6.50;;;;;;;5.89;79.21;100133.66;5069861;28;20060;-62
2021/11/26 06:37:27;;;;;;;16.17;5.90;;;;;;;5.96;79.09;100139.56;5070937;28;20068;-65
2021/11/26 06:39:54;;;;;;;23.10;7.88;;;;;;;5.82;79.70;100125.81;5065677;28;20492;-65
2021/11/26 06:42:21;;;;;;;19.73;6.70;;;;;;;6.15;78.75;100127.50;5055424;28;20053;-65
2021/11/26 06:44:50;;;;;;;17.27;6.50;;;;;;;6.40;77.75;100124.31;5055048;28;20044;-64
2021/11/26 06:47:19;;;;;;;21.25;6.57;;;;;;;6.36;77.62;100111.56;5063530;28;20056;-65
2021/11/26 06:49:51;;;;;;;21.80;6.50;;;;;;;6.61;77.03;100114.63;5068644;28;20075;-65
2021/11/26 06:52:19;;;;;;;20.92;6.65;;;;;;;6.63;75.73;100112.41;5058511;28;20044;-64
2021/11/26 06:54:51;;;;;;;18.25;6.50;;;;;;;6.36;76.67;100101.41;5068466;28;20044;-64
2021/11/26 06:57:18;;;;;;;19.98;6.78;;;;;;;6.35;76.89;100105.25;5055982;28;20060;-66
2021/11/26 06:59:46;;;;;;;18.80;6.70;;;;;;;6.25;76.94;100097.25;5055322;28;20370;-65
2021/11/26 07:02:13;;;;;;;25.02;7.25;;;;;;;6.18;77.58;100091.34;5055543;28;20045;-67
2021/11/26 07:04:43;;;;;;;22.20;6.68;;;;;;;6.17;77.54;100078.78;5060120;28;20056;-66
2021/11/26 07:07:11;;;;;;;22.55;7.70;;;;;;;6.28;77.46;100073.94;5059072;28;20079;-66
2021/11/26 07:09:39;;;;;;;24.45;6.50;;;;;;;6.42;76.51;100074.78;5054516;28;20052;-65
2021/11/26 07:12:10;;;;;;;18.70;6.80;;;;;;;6.19;77.09;100067.56;5061874;28;20051;-66
2021/11/26 07:14:44;;;;;;;27.17;7.05;;;;;;;6.37;76.78;100077.59;5062334;28;20075;-68
2021/11/26 07:17:14;;;;;;;;;;;;;;;6.34;76.33;100062.63;5063236;28;20392;-65
2021/11/26 07:19:47;;;;;;;22.13;6.35;;;;;;;6.84;76.19;100058.91;5060988;28;19924;-69
2021/11/26 07:22:14;;;;;;;17.00;5.93;;;;;;;6.83;76.87;100060.00;5068897;28;20056;-67
2021/11/26 07:24:42;;;;;;;19.05;7.53;;;;;;;6.91;76.31;100047.53;5055372;28;20049;-66
2021/11/26 07:27:10;;;;;;;23.73;6.28;;;;;;;7.07;80.33;100046.13;5055078;28;20040;-65
2021/11/26 07:29:38;;;;;;;20.40;6.70;;;;;;;6.85;76.79;100041.34;5054940;28;20051;-66
2021/11/26 07:32:06;;;;;;;19.02;6.45;;;;;;;6.59;76.42;100036.72;5065070;28;20056;-66
2021/11/26 07:34:34;;;;;;;22.67;6.10;;;;;;;6.77;76.42;100031.13;5055959;28;20045;-62
2021/11/26 07:37:02;;;;;;;21.00;6.90;;;;;;;6.78;77.07;100021.00;5061309;28;20053;-62
2021/11/26 07:39:34;;;;;;;23.27;6.53;;;;;;;6.82;76.46;100022.81;5075552;28;20499;-60
2021/11/26 07:42:03;;;;;;;17.75;6.00;;;;;;;6.70;75.87;100024.44;5051080;28;20487;-62
2021/11/26 07:44:35;;;;;;;18.58;6.30;;;;;;;6.70;75.88;100018.97;5088147;28;20071;-63
2021/11/26 07:47:04;;;;;;;17.55;6.13;;;;;;;6.73;75.22;100021.09;5055782;28;20049;-65
2021/11/26 07:49:31;;;;;;;28.15;7.05;;;;;;;6.91;76.10;100020.16;5054694;28;20131;-62
2021/11/26 07:52:00;;;;;;;18.25;7.35;;;;;;;6.81;74.96;100014.91;5054801;28;20100;-61
2021/11/26 07:54:27;;;;;;;21.08;8.38;;;;;;;6.87;74.53;100019.16;5061792;28;20060;-62
2021/11/26 07:56:54;;;;;;;19.58;6.93;;;;;;;7.21;74.51;100018.69;5060930;28;20411;-62
2021/11/26 07:59:23;;;;;;;25.33;6.65;;;;;;;7.12;74.14;100018.63;5056143;28;20057;-63
2021/11/26 08:01:51;;;;;;;18.60;6.73;;;;;;;7.14;73.07;100010.09;5073289;28;20503;-63
2021/11/26 08:04:19;;;;;;;22.70;6.43;;;;;;;6.91;72.86;100008.41;5074835;28;20297;-67
2021/11/26 08:06:46;;;;;;;32.03;7.45;;;;;;;7.03;73.54;99995.00;5072478;28;20377;-67
2021/11/26 08:09:19;;;;;;;20.08;6.80;;;;;;;6.96;75.57;99980.94;5059221;28;20056;-66
2021/11/26 08:11:48;;;;;;;28.35;8.30;;;;;;;7.93;75.84;99968.94;5054431;28;20049;-67
2021/11/26 08:14:16;;;;;;;19.65;7.72;;;;;;;7.91;72.32;99964.91;5055222;28;20052;-68
2021/11/26 08:16:43;;;;;;;16.40;7.20;;;;;;;7.82;70.65;99958.56;5054468;28;20053;-67
2021/11/26 08:19:11;;;;;;;15.80;6.20;;;;;;;7.83;70.81;99957.44;5054611;28;20049;-68
2021/11/26 08:21:39;;;;;;;21.02;5.78;;;;;;;7.66;70.25;99949.09;5072598;28;20403;-66
2021/11/26 08:24:07;;;;;;;16.20;5.93;;;;;;;7.61;70.30;99954.72;5055532;28;20045;-67
2021/11/26 08:26:35;;;;;;;20.50;5.35;;;;;;;7.54;69.98;99952.44;5037627;28;20439;-67
2021/11/26 08:29:04;;;;;;;17.55;5.55;;;;;;;7.58;70.34;99952.63;5057312;28;20049;-65
2021/11/26 08:31:31;;;;;;;13.70;4.93;;;;;;;7.81;69.80;99956.97;5069686;28;20052;-61
2021/11/26 08:33:59;;;;;;;14.55;5.03;;;;;;;7.56;69.04;99952.13;5075009;28;20052;-62
2021/11/26 08:36:26;;;;;;;16.33;5.53;;;;;;;7.49;70.01;99940.78;5063707;28;20063;-62
2021/11/26 08:38:54;;;;;;;16.67;5.43;;;;;;;7.44;69.83;99949.13;5062462;28;20063;-60
2021/11/26 08:41:23;;;;;;;17.05;5.20;;;;;;;7.62;70.52;99943.44;5077325;28;20438;-61
2021/11/26 08:43:51;;;;;;;16.70;5.47;;;;;;;7.59;70.51;99933.13;5066999;28;20056;-62
2021/11/26 08:46:18;;;;;;;16.00;5.63;;;;;;;7.31;70.35;99926.16;5060253;28;20071;-60
2021/11/26 08:48:46;;;;;;;24.90;9.95;;;;;;;7.57;69.53;99924.38;5062402;28;20060;-63
2021/11/26 08:51:13;;;;;;;15.93;5.10;;;;;;;7.61;69.90;99924.56;5065600;28;20055;-61
2021/11/26 08:53:45;;;;;;;15.65;5.28;;;;;;;7.71;69.06;99929.78;5077116;28;20076;-60
2021/11/26 08:56:14;;;;;;;12.75;5.00;;;;;;;7.26;69.57;99922.72;5066040;28;20072;-62
2021/11/26 08:58:45;;;;;;;12.15;4.07;;;;;;;7.29;69.96;99930.31;5064038;28;20042;-61
2021/11/26 09:01:15;;;;;;;22.45;4.97;;;;;;;7.40;69.81;99924.28;5056632;28;20055;-62
2021/11/26 09:03:46;;;;;;;13.57;4.93;;;;;;;7.44;69.46;99925.28;5058619;28;20057;-60
2021/11/26 09:06:15;;;;;;;14.27;4.78;;;;;;;7.39;69.72;99917.16;5070823;28;20079;-62
2021/11/26 09:08:43;;;;;;;15.60;4.47;;;;;;;7.34;70.26;99922.78;5063602;28;20056;-64
2021/11/26 09:11:11;;;;;;;21.73;4.13;;;;;;;7.69;69.62;99913.66;5064266;28;20060;-61
2021/11/26 09:13:39;;;;;;;18.40;4.25;;;;;;;7.65;68.87;99896.22;5067387;28;20049;-60
2021/11/26 09:16:06;;;;;;;12.60;3.83;;;;;;;7.32;69.03;99894.09;5039191;28;20053;-62
2021/11/26 09:18:34;;;;;;;15.35;3.92;;;;;;;7.34;68.95;99891.84;5058415;28;20103;-61
2021/11/26 09:21:02;;;;;;;12.73;4.30;;;;;;;7.40;69.14;99876.88;5057209;28;20071;-61
2021/11/26 09:23:30;;;;;;;16.20;4.45;;;;;;;7.33;69.77;99866.38;5071946;28;20055;-62
2021/11/26 09:25:57;;;;;;;19.63;3.85;;;;;;;7.82;67.70;99857.13;5060644;28;20500;-61
2021/11/26 09:28:24;;;;;;;14.50;3.60;;;;;;;7.76;67.19;99847.41;5057510;28;20045;-61
2021/11/26 09:30:51;;;;;;;12.13;3.58;;;;;;;7.82;67.74;99848.91;5056351;28;20040;-61
2021/11/26 09:33:20;;;;;;;13.00;4.28;;;;;;;7.82;67.64;99855.22;5070808;28;20074;-60
2021/11/26 09:35:47;;;;;;;12.43;5.00;;;;;;;7.85;67.15;99851.00;5076042;28;20051;-61
2021/11/26 09:38:15;;;;;;;15.15;3.97;;;;;;;7.83;66.31;99843.09;5077424;28;20060;-62
2021/11/26 09:40:44;;;;;;;17.05;4.15;;;;;;;7.48;67.15;99833.09;5077215;28;20056;-61
2021/11/26 09:43:12;;;;;;;15.63;4.50;;;;;;;7.71;67.25;99831.13;5056884;28;20049;-61
2021/11/26 09:45:40;;;;;;;15.98;3.83;;;;;;;7.85;66.84;99829.09;5054987;28;20053;-67
2021/11/26 09:48:07;;;;;;;15.10;4.57;;;;;;;8.04;66.19;99813.16;5058610;28;20489;-61
2021/11/26 09:50:35;;;;;;;22.17;8.65;;;;;;;8.14;65.15;99801.94;5057082;28;20055;-62
2021/11/26 09:53:15;;;;;;;16.77;4.25;;;;;;;7.81;65.26;99806.97;5057698;28;20045;-67
2021/11/26 09:55:53;;;;;;;;;;;;;;;7.91;65.54;99803.16;5057789;28;20061;-66
2021/11/26 09:58:22;;;;;;;12.48;4.25;;;;;;;7.91;65.13;99794.94;5057894;28;20324;-65
2021/11/26 10:00:50;;;;;;;18.85;4.20;;;;;;;8.03;65.08;99786.88;5063611;28;20515;-65
2021/11/26 10:03:18;;;;;;;9.88;3.67;;;;;;;8.28;64.21;99782.63;5074958;28;20524;-66
2021/11/26 10:05:46;;;;;;;12.63;3.42;;;;;;;8.49;63.98;99778.13;5064509;28;20084;-64
2021/11/26 10:08:23;;;;;;;15.38;3.60;;;;;;;8.43;62.55;99765.66;5062197;28;20056;-66
2021/11/26 10:11:00;;;;;;;12.18;3.17;;;;;;;8.41;62.94;99766.00;5072272;28;20065;-66
2021/11/26 10:13:30;;;;;;;15.90;4.50;;;;;;;8.33;63.30;99758.59;5051598;28;20527;-60
2021/11/26 10:16:08;;;;;;;9.00;3.08;;;;;;;8.36;62.22;99763.41;5058038;28;20045;-61
2021/11/26 10:18:36;;;;;;;12.27;3.08;;;;;;;8.50;63.02;99752.28;5061125;28;20041;-61
2021/11/26 10:21:07;;;;;;;12.20;2.83;;;;;;;8.40;62.80;99744.38;5058013;28;20053;-62
2021/11/26 10:23:46;;;;;;;15.45;3.67;;;;;;;8.59;61.93;99726.44;5046869;28;20404;-61
2021/11/26 10:26:25;;;;;;;15.73;3.20;;;;;;;8.49;61.43;99717.75;5055869;28;20064;-61
2021/11/26 10:29:01;;;;;;;11.60;2.40;;;;;;;8.36;62.08;99708.53;5062167;28;20067;-61
2021/11/26 10:31:35;;;;;;;12.90;3.28;;;;;;;8.61;61.48;99698.69;5065853;28;20060;-66
2021/11/26 10:34:25;;;;;;;16.13;3.60;;;;;;;8.39;61.80;99674.16;5056352;28;20049;-67
2021/11/26 10:36:53;;;;;;;8.52;3.05;;;;;;;8.19;61.51;99681.09;5056774;28;20139;-66
2021/11/26 10:39:22;;;;;;;7.93;2.72;;;;;;;8.15;62.11;99669.13;5072191;28;20372;-60
2021/11/26 10:41:53;;;;;;;12.88;4.18;;;;;;;8.18;62.37;99664.94;5083230;28;20048;-61
2021/11/26 10:44:50;;;;;;;14.63;4.25;;;;;;;8.24;62.02;99664.50;5081722;28;20048;-61
2021/11/26 10:47:43;;;;;;;15.00;3.22;;;;;;;8.21;62.16;99662.34;5054419;28;20060;-61
2021/11/26 10:58:36;;;;;;;11.38;3.58;;;;;;;8.36;62.20;99647.38;5056327;28;20048;-62
2021/11/26 11:01:13;;;;;;;13.63;3.40;;;;;;;8.25;62.68;99646.88;5060424;28;20040;-65
2021/11/26 11:03:43;;;;;;;12.85;3.70;;;;;;;8.29;62.82;99628.66;5080254;28;20545;-67
2021/11/26 11:06:21;;;;;;;9.52;2.70;;;;;;;8.69;61.99;99621.81;5059708;28;20063;-62
2021/11/26 11:09:03;;;;;;;16.42;3.20;;;;;;;8.67;61.43;99613.06;5063272;28;20144;-66
2021/11/26 11:11:31;;;;;;;9.38;2.75;;;;;;;8.61;62.14;99606.13;5038008;28;20056;-64
2021/11/26 11:14:00;;;;;;;13.07;3.45;;;;;;;8.59;61.88;99597.44;5054289;28;20536;-61
2021/11/26 11:16:31;;;;;;;15.80;3.42;;;;;;;8.57;62.16;99590.66;5061049;28;20049;-66
2021/11/26 11:18:58;;;;;;;14.27;5.07;;;;;;;8.71;62.01;99566.56;5064788;28;20463;-62
2021/11/26 11:21:26;;;;;;;10.82;3.58;;;;;;;8.39;62.19;99565.22;5057598;28;20408;-67
2021/11/26 11:23:53;;;;;;;13.05;3.70;;;;;;;8.60;62.51;99549.66;5058501;28;20128;-61
2021/11/26 11:26:21;;;;;;;10.40;2.63;;;;;;;8.70;62.18;99529.28;5037151;28;20052;-62
2021/11/26 11:28:48;;;;;;;10.88;3.42;;;;;;;8.61;61.99;99534.00;5038166;28;20053;-61
2021/11/26 11:31:15;;;;;;;14.70;4.53;;;;;;;8.68;62.26;99520.56;5055614;28;20061;-64
2021/11/26 11:33:43;;;;;;;7.35;2.47;;;;;;;8.67;62.16;99507.97;5055679;28;20046;-66
2021/11/26 11:36:11;;;;;;;13.30;3.80;;;;;;;8.92;61.96;99498.78;5054084;28;20057;-63
2021/11/26 11:38:38;;;;;;;18.92;6.63;;;;;;;9.28;60.14;99485.28;5067907;28;20052;-63
2021/11/26 11:41:08;;;;;;;17.30;6.13;;;;;;;9.17;61.80;99486.81;5095326;28;20048;-66
2021/11/26 11:43:41;;;;;;;;;;;;;;;9.14;61.01;99484.75;5068959;28;20404;-68
2021/11/26 11:46:11;;;;;;;15.32;5.90;;;;;;;9.25;60.77;99471.41;5054873;28;19927;-61